Archival Weather

Agadez

Agadez, Niger (DRZA)

Report from: Thursday, September 21, 2023 8:00 AM WAT
Current time: Friday, February 23, 2024 8:25 PM WAT

Current weather – Weather history – Daily summaries
Weather forecast

Temperature31.0°C (87.8°F)
Heat index29.3°C (84.7°F)
Dew point8.0°C (46.4°F)
Winds 7 kts (3.6 m/s, 8.1 mph) East-Southeast (120°)
Clouds Sky clear
Altimeter29.91 in.Hg (1013 mB)
Relative humidity24 %
Density altitude1,995 ft. (608 m)
Remarks Ceiling and visibility OK
Flight conditions Visual Meteorological Conditions
Raw dataDRZA 210700Z 12007KT CAVOK 31/08 Q1013
An error has occurred. This application may no longer respond until reloaded. Reload 🗙